sensor_id;sensor_type;location;lat;lon;timestamp;P1;durP1;ratioP1;P2;durP2;ratioP2
13263;SDS011;6700;51.988;7.646;2023-06-10T00:01:29;12.27;;;6.63;;
13263;SDS011;6700;51.988;7.646;2023-06-10T00:03:56;7.60;;;6.73;;
13263;SDS011;6700;51.988;7.646;2023-06-10T00:06:23;8.27;;;6.40;;
13263;SDS011;6700;51.988;7.646;2023-06-10T00:08:50;9.83;;;7.37;;
13263;SDS011;6700;51.988;7.646;2023-06-10T00:11:17;11.03;;;6.83;;
13263;SDS011;6700;51.988;7.646;2023-06-10T00:13:44;8.13;;;6.90;;
13263;SDS011;6700;51.988;7.646;2023-06-10T00:16:11;13.27;;;6.50;;
13263;SDS011;6700;51.988;7.646;2023-06-10T00:18:38;9.70;;;6.13;;
13263;SDS011;6700;51.988;7.646;2023-06-10T00:21:04;9.07;;;5.97;;
13263;SDS011;6700;51.988;7.646;2023-06-10T00:23:31;10.00;;;6.43;;
13263;SDS011;6700;51.988;7.646;2023-06-10T00:26:04;7.93;;;6.63;;
13263;SDS011;6700;51.988;7.646;2023-06-10T00:28:31;10.00;;;6.30;;
13263;SDS011;6700;51.988;7.646;2023-06-10T00:30:58;7.63;;;6.77;;
13263;SDS011;6700;51.988;7.646;2023-06-10T00:33:25;10.50;;;6.60;;
13263;SDS011;6700;51.988;7.646;2023-06-10T00:35:52;8.80;;;6.03;;
13263;SDS011;6700;51.988;7.646;2023-06-10T00:38:19;12.80;;;6.40;;
13263;SDS011;6700;51.988;7.646;2023-06-10T00:40:46;10.57;;;6.20;;
13263;SDS011;6700;51.988;7.646;2023-06-10T00:43:12;9.70;;;6.50;;
13263;SDS011;6700;51.988;7.646;2023-06-10T00:45:39;8.73;;;6.23;;
13263;SDS011;6700;51.988;7.646;2023-06-10T00:48:06;7.27;;;6.23;;
13263;SDS011;6700;51.988;7.646;2023-06-10T00:50:34;9.73;;;6.97;;
13263;SDS011;6700;51.988;7.646;2023-06-10T00:53:05;9.13;;;6.63;;
13263;SDS011;6700;51.988;7.646;2023-06-10T00:55:33;6.97;;;6.27;;
13263;SDS011;6700;51.988;7.646;2023-06-10T00:58:02;8.57;;;6.90;;
13263;SDS011;6700;51.988;7.646;2023-06-10T01:00:30;9.67;;;6.77;;
13263;SDS011;6700;51.988;7.646;2023-06-10T01:02:58;7.50;;;6.67;;
13263;SDS011;6700;51.988;7.646;2023-06-10T01:05:25;8.63;;;7.00;;
13263;SDS011;6700;51.988;7.646;2023-06-10T01:07:58;7.33;;;6.63;;
13263;SDS011;6700;51.988;7.646;2023-06-10T01:13:02;7.50;;;6.70;;
13263;SDS011;6700;51.988;7.646;2023-06-10T01:15:33;7.90;;;6.53;;
13263;SDS011;6700;51.988;7.646;2023-06-10T01:18:02;7.07;;;6.30;;
13263;SDS011;6700;51.988;7.646;2023-06-10T01:20:31;10.90;;;7.10;;
13263;SDS011;6700;51.988;7.646;2023-06-10T01:22:59;12.20;;;7.03;;
13263;SDS011;6700;51.988;7.646;2023-06-10T01:25:29;8.83;;;6.50;;
13263;SDS011;6700;51.988;7.646;2023-06-10T01:28:02;7.90;;;7.07;;
13263;SDS011;6700;51.988;7.646;2023-06-10T01:33:28;7.93;;;7.07;;
13263;SDS011;6700;51.988;7.646;2023-06-10T01:36:00;11.63;;;7.30;;
13263;SDS011;6700;51.988;7.646;2023-06-10T01:38:30;8.17;;;7.00;;
13263;SDS011;6700;51.988;7.646;2023-06-10T01:41:01;7.97;;;7.00;;
13263;SDS011;6700;51.988;7.646;2023-06-10T01:43:32;8.33;;;7.20;;
13263;SDS011;6700;51.988;7.646;2023-06-10T01:46:04;7.87;;;6.97;;
13263;SDS011;6700;51.988;7.646;2023-06-10T01:48:32;16.17;;;7.17;;
13263;SDS011;6700;51.988;7.646;2023-06-10T01:50:59;9.00;;;7.13;;
13263;SDS011;6700;51.988;7.646;2023-06-10T01:53:25;8.30;;;7.00;;
13263;SDS011;6700;51.988;7.646;2023-06-10T01:55:52;8.17;;;6.97;;
13263;SDS011;6700;51.988;7.646;2023-06-10T01:58:19;9.13;;;6.60;;
13263;SDS011;6700;51.988;7.646;2023-06-10T02:00:46;8.23;;;6.40;;
13263;SDS011;6700;51.988;7.646;2023-06-10T02:03:13;8.30;;;6.60;;
13263;SDS011;6700;51.988;7.646;2023-06-10T02:05:40;6.50;;;5.90;;
13263;SDS011;6700;51.988;7.646;2023-06-10T02:08:07;9.00;;;6.90;;
13263;SDS011;6700;51.988;7.646;2023-06-10T02:10:34;7.63;;;6.70;;
13263;SDS011;6700;51.988;7.646;2023-06-10T02:13:01;6.87;;;6.17;;
13263;SDS011;6700;51.988;7.646;2023-06-10T02:15:28;7.20;;;6.50;;
13263;SDS011;6700;51.988;7.646;2023-06-10T02:17:54;7.13;;;6.43;;
13263;SDS011;6700;51.988;7.646;2023-06-10T02:20:22;7.97;;;7.17;;
13263;SDS011;6700;51.988;7.646;2023-06-10T02:22:48;7.70;;;6.87;;
13263;SDS011;6700;51.988;7.646;2023-06-10T02:25:15;7.77;;;6.67;;
13263;SDS011;6700;51.988;7.646;2023-06-10T02:27:42;9.23;;;6.83;;
13263;SDS011;6700;51.988;7.646;2023-06-10T02:30:09;11.10;;;7.37;;
13263;SDS011;6700;51.988;7.646;2023-06-10T02:32:37;11.30;;;7.50;;
13263;SDS011;6700;51.988;7.646;2023-06-10T02:35:03;8.77;;;6.80;;
13263;SDS011;6700;51.988;7.646;2023-06-10T02:37:31;9.57;;;6.70;;
13263;SDS011;6700;51.988;7.646;2023-06-10T02:39:58;10.90;;;6.73;;
13263;SDS011;6700;51.988;7.646;2023-06-10T02:42:24;14.30;;;7.07;;
13263;SDS011;6700;51.988;7.646;2023-06-10T02:44:51;14.10;;;6.93;;
13263;SDS011;6700;51.988;7.646;2023-06-10T02:47:18;9.60;;;7.07;;
13263;SDS011;6700;51.988;7.646;2023-06-10T02:49:45;10.33;;;7.13;;
13263;SDS011;6700;51.988;7.646;2023-06-10T02:52:11;7.37;;;6.67;;
13263;SDS011;6700;51.988;7.646;2023-06-10T02:54:38;8.63;;;6.80;;
13263;SDS011;6700;51.988;7.646;2023-06-10T02:57:05;8.90;;;7.13;;
13263;SDS011;6700;51.988;7.646;2023-06-10T02:59:32;9.00;;;7.20;;
13263;SDS011;6700;51.988;7.646;2023-06-10T03:01:59;7.77;;;6.93;;
13263;SDS011;6700;51.988;7.646;2023-06-10T03:04:27;8.37;;;6.93;;
13263;SDS011;6700;51.988;7.646;2023-06-10T03:06:55;11.63;;;6.60;;
13263;SDS011;6700;51.988;7.646;2023-06-10T03:09:22;8.87;;;7.43;;
13263;SDS011;6700;51.988;7.646;2023-06-10T03:11:48;11.00;;;7.57;;
13263;SDS011;6700;51.988;7.646;2023-06-10T03:14:15;8.47;;;7.27;;
13263;SDS011;6700;51.988;7.646;2023-06-10T03:16:42;8.77;;;6.43;;
13263;SDS011;6700;51.988;7.646;2023-06-10T03:19:09;9.77;;;7.27;;
13263;SDS011;6700;51.988;7.646;2023-06-10T03:21:36;8.07;;;7.27;;
13263;SDS011;6700;51.988;7.646;2023-06-10T03:24:03;8.40;;;7.03;;
13263;SDS011;6700;51.988;7.646;2023-06-10T03:26:31;8.53;;;7.40;;
13263;SDS011;6700;51.988;7.646;2023-06-10T03:28:58;8.50;;;7.63;;
13263;SDS011;6700;51.988;7.646;2023-06-10T03:31:24;14.13;;;6.53;;
13263;SDS011;6700;51.988;7.646;2023-06-10T03:33:52;11.20;;;7.30;;
13263;SDS011;6700;51.988;7.646;2023-06-10T03:36:18;9.17;;;7.57;;
13263;SDS011;6700;51.988;7.646;2023-06-10T03:38:46;11.10;;;6.83;;
13263;SDS011;6700;51.988;7.646;2023-06-10T03:41:13;9.43;;;7.03;;
13263;SDS011;6700;51.988;7.646;2023-06-10T03:43:41;10.57;;;8.60;;
13263;SDS011;6700;51.988;7.646;2023-06-10T03:46:10;8.23;;;6.57;;
13263;SDS011;6700;51.988;7.646;2023-06-10T03:48:37;9.47;;;7.43;;
13263;SDS011;6700;51.988;7.646;2023-06-10T03:51:04;8.37;;;6.83;;
13263;SDS011;6700;51.988;7.646;2023-06-10T03:53:31;15.17;;;7.87;;
13263;SDS011;6700;51.988;7.646;2023-06-10T03:55:58;8.97;;;6.80;;
13263;SDS011;6700;51.988;7.646;2023-06-10T03:58:25;9.60;;;7.47;;
13263;SDS011;6700;51.988;7.646;2023-06-10T04:00:52;10.33;;;7.03;;
13263;SDS011;6700;51.988;7.646;2023-06-10T04:03:18;11.07;;;7.13;;
13263;SDS011;6700;51.988;7.646;2023-06-10T04:05:48;11.03;;;6.73;;
13263;SDS011;6700;51.988;7.646;2023-06-10T04:08:16;8.17;;;7.07;;
13263;SDS011;6700;51.988;7.646;2023-06-10T04:10:43;7.90;;;6.63;;
13263;SDS011;6700;51.988;7.646;2023-06-10T04:13:10;8.63;;;7.27;;
13263;SDS011;6700;51.988;7.646;2023-06-10T04:15:36;8.10;;;6.77;;
13263;SDS011;6700;51.988;7.646;2023-06-10T04:18:04;10.97;;;7.03;;
13263;SDS011;6700;51.988;7.646;2023-06-10T04:20:31;11.03;;;7.13;;
13263;SDS011;6700;51.988;7.646;2023-06-10T04:22:58;8.20;;;6.90;;
13263;SDS011;6700;51.988;7.646;2023-06-10T04:25:26;9.27;;;7.00;;
13263;SDS011;6700;51.988;7.646;2023-06-10T04:27:53;10.63;;;6.80;;
13263;SDS011;6700;51.988;7.646;2023-06-10T04:30:20;8.23;;;6.87;;
13263;SDS011;6700;51.988;7.646;2023-06-10T04:32:47;12.17;;;7.00;;
13263;SDS011;6700;51.988;7.646;2023-06-10T04:35:14;7.50;;;6.10;;
13263;SDS011;6700;51.988;7.646;2023-06-10T04:37:41;8.07;;;5.90;;
13263;SDS011;6700;51.988;7.646;2023-06-10T04:40:09;10.27;;;6.73;;
13263;SDS011;6700;51.988;7.646;2023-06-10T04:42:36;9.03;;;6.53;;
13263;SDS011;6700;51.988;7.646;2023-06-10T04:45:03;6.27;;;5.67;;
13263;SDS011;6700;51.988;7.646;2023-06-10T04:47:30;7.43;;;6.00;;
13263;SDS011;6700;51.988;7.646;2023-06-10T04:50:00;11.77;;;6.00;;
13263;SDS011;6700;51.988;7.646;2023-06-10T04:52:27;7.50;;;6.10;;
13263;SDS011;6700;51.988;7.646;2023-06-10T04:54:54;20.23;;;6.50;;
13263;SDS011;6700;51.988;7.646;2023-06-10T04:57:21;13.23;;;7.47;;
13263;SDS011;6700;51.988;7.646;2023-06-10T04:59:48;7.03;;;5.53;;
13263;SDS011;6700;51.988;7.646;2023-06-10T05:02:16;13.43;;;6.57;;
13263;SDS011;6700;51.988;7.646;2023-06-10T05:04:43;8.07;;;5.90;;
13263;SDS011;6700;51.988;7.646;2023-06-10T05:07:11;8.83;;;5.70;;
13263;SDS011;6700;51.988;7.646;2023-06-10T05:09:38;9.43;;;6.53;;
13263;SDS011;6700;51.988;7.646;2023-06-10T05:12:06;8.57;;;5.53;;
13263;SDS011;6700;51.988;7.646;2023-06-10T05:14:33;5.80;;;5.20;;
13263;SDS011;6700;51.988;7.646;2023-06-10T05:17:00;8.40;;;5.50;;
13263;SDS011;6700;51.988;7.646;2023-06-10T05:19:27;6.60;;;5.70;;
13263;SDS011;6700;51.988;7.646;2023-06-10T05:21:54;6.97;;;6.03;;
13263;SDS011;6700;51.988;7.646;2023-06-10T05:24:21;7.67;;;5.40;;
13263;SDS011;6700;51.988;7.646;2023-06-10T05:26:49;9.13;;;5.73;;
13263;SDS011;6700;51.988;7.646;2023-06-10T05:29:16;12.43;;;5.37;;
13263;SDS011;6700;51.988;7.646;2023-06-10T05:31:43;6.07;;;5.20;;
13263;SDS011;6700;51.988;7.646;2023-06-10T05:34:11;10.50;;;5.40;;
13263;SDS011;6700;51.988;7.646;2023-06-10T05:36:38;9.60;;;5.73;;
13263;SDS011;6700;51.988;7.646;2023-06-10T05:39:05;9.63;;;5.10;;
13263;SDS011;6700;51.988;7.646;2023-06-10T05:41:32;8.93;;;5.50;;
13263;SDS011;6700;51.988;7.646;2023-06-10T05:44:00;9.43;;;5.77;;
13263;SDS011;6700;51.988;7.646;2023-06-10T05:46:27;6.87;;;4.80;;
13263;SDS011;6700;51.988;7.646;2023-06-10T05:48:54;7.83;;;5.17;;
13263;SDS011;6700;51.988;7.646;2023-06-10T05:51:21;9.40;;;4.90;;
13263;SDS011;6700;51.988;7.646;2023-06-10T05:53:48;7.53;;;5.13;;
13263;SDS011;6700;51.988;7.646;2023-06-10T05:56:16;9.87;;;5.43;;
13263;SDS011;6700;51.988;7.646;2023-06-10T05:58:43;8.00;;;5.60;;
13263;SDS011;6700;51.988;7.646;2023-06-10T06:01:10;8.73;;;5.30;;
13263;SDS011;6700;51.988;7.646;2023-06-10T06:03:37;8.87;;;5.43;;
13263;SDS011;6700;51.988;7.646;2023-06-10T06:06:05;8.47;;;5.37;;
13263;SDS011;6700;51.988;7.646;2023-06-10T06:08:32;10.37;;;5.07;;
13263;SDS011;6700;51.988;7.646;2023-06-10T06:10:59;12.10;;;6.03;;
13263;SDS011;6700;51.988;7.646;2023-06-10T06:13:26;6.13;;;5.10;;
13263;SDS011;6700;51.988;7.646;2023-06-10T06:15:54;7.03;;;5.07;;
13263;SDS011;6700;51.988;7.646;2023-06-10T06:18:21;6.83;;;5.13;;
13263;SDS011;6700;51.988;7.646;2023-06-10T06:20:48;8.17;;;4.87;;
13263;SDS011;6700;51.988;7.646;2023-06-10T06:23:15;9.67;;;5.10;;
13263;SDS011;6700;51.988;7.646;2023-06-10T06:25:42;7.80;;;5.10;;
13263;SDS011;6700;51.988;7.646;2023-06-10T06:28:09;6.90;;;4.70;;
13263;SDS011;6700;51.988;7.646;2023-06-10T06:30:37;5.60;;;4.90;;
13263;SDS011;6700;51.988;7.646;2023-06-10T06:33:04;9.10;;;5.57;;
13263;SDS011;6700;51.988;7.646;2023-06-10T06:35:32;8.30;;;5.07;;
13263;SDS011;6700;51.988;7.646;2023-06-10T06:38:00;8.23;;;4.20;;
13263;SDS011;6700;51.988;7.646;2023-06-10T06:40:27;14.00;;;5.00;;
13263;SDS011;6700;51.988;7.646;2023-06-10T06:42:54;6.35;;;5.20;;
13263;SDS011;6700;51.988;7.646;2023-06-10T06:45:21;6.25;;;4.57;;
13263;SDS011;6700;51.988;7.646;2023-06-10T06:47:48;6.15;;;4.85;;
13263;SDS011;6700;51.988;7.646;2023-06-10T06:50:16;11.07;;;5.07;;
13263;SDS011;6700;51.988;7.646;2023-06-10T06:52:43;7.28;;;4.38;;
13263;SDS011;6700;51.988;7.646;2023-06-10T06:55:10;6.93;;;4.38;;
13263;SDS011;6700;51.988;7.646;2023-06-10T06:57:38;6.43;;;4.68;;
13263;SDS011;6700;51.988;7.646;2023-06-10T07:00:05;9.88;;;4.88;;
13263;SDS011;6700;51.988;7.646;2023-06-10T07:02:34;6.65;;;4.95;;
13263;SDS011;6700;51.988;7.646;2023-06-10T07:05:01;7.07;;;4.63;;
13263;SDS011;6700;51.988;7.646;2023-06-10T07:07:29;6.07;;;4.80;;
13263;SDS011;6700;51.988;7.646;2023-06-10T07:09:56;6.55;;;4.43;;
13263;SDS011;6700;51.988;7.646;2023-06-10T07:12:23;4.68;;;4.28;;
13263;SDS011;6700;51.988;7.646;2023-06-10T07:14:51;8.13;;;4.47;;
13263;SDS011;6700;51.988;7.646;2023-06-10T07:17:18;7.95;;;4.53;;
13263;SDS011;6700;51.988;7.646;2023-06-10T07:19:45;5.32;;;3.90;;
13263;SDS011;6700;51.988;7.646;2023-06-10T07:22:13;5.72;;;4.15;;
13263;SDS011;6700;51.988;7.646;2023-06-10T07:24:40;4.78;;;4.15;;
13263;SDS011;6700;51.988;7.646;2023-06-10T07:27:08;9.55;;;4.35;;
13263;SDS011;6700;51.988;7.646;2023-06-10T07:29:36;6.72;;;4.25;;
13263;SDS011;6700;51.988;7.646;2023-06-10T07:32:03;6.13;;;4.10;;
13263;SDS011;6700;51.988;7.646;2023-06-10T07:34:30;9.43;;;4.88;;
13263;SDS011;6700;51.988;7.646;2023-06-10T07:36:58;4.80;;;3.80;;
13263;SDS011;6700;51.988;7.646;2023-06-10T07:39:25;5.88;;;4.35;;
13263;SDS011;6700;51.988;7.646;2023-06-10T07:41:52;9.40;;;4.95;;
13263;SDS011;6700;51.988;7.646;2023-06-10T07:44:20;4.68;;;4.28;;
13263;SDS011;6700;51.988;7.646;2023-06-10T07:46:47;4.88;;;4.00;;
13263;SDS011;6700;51.988;7.646;2023-06-10T07:49:14;4.93;;;4.43;;
13263;SDS011;6700;51.988;7.646;2023-06-10T07:51:41;4.72;;;4.30;;
13263;SDS011;6700;51.988;7.646;2023-06-10T07:54:08;6.43;;;4.10;;
13263;SDS011;6700;51.988;7.646;2023-06-10T07:56:38;6.10;;;4.85;;
13263;SDS011;6700;51.988;7.646;2023-06-10T07:59:05;5.57;;;3.92;;
13263;SDS011;6700;51.988;7.646;2023-06-10T08:01:32;6.40;;;5.10;;
13263;SDS011;6700;51.988;7.646;2023-06-10T08:04:03;7.38;;;4.53;;
13263;SDS011;6700;51.988;7.646;2023-06-10T08:06:30;25.02;;;5.25;;
13263;SDS011;6700;51.988;7.646;2023-06-10T08:08:58;10.32;;;5.07;;
13263;SDS011;6700;51.988;7.646;2023-06-10T08:11:26;6.55;;;4.25;;
13263;SDS011;6700;51.988;7.646;2023-06-10T08:13:56;10.65;;;5.10;;
13263;SDS011;6700;51.988;7.646;2023-06-10T08:16:23;5.93;;;4.22;;
13263;SDS011;6700;51.988;7.646;2023-06-10T08:18:50;13.13;;;4.50;;
13263;SDS011;6700;51.988;7.646;2023-06-10T08:21:21;5.28;;;4.38;;
13263;SDS011;6700;51.988;7.646;2023-06-10T08:23:47;6.47;;;4.82;;
13263;SDS011;6700;51.988;7.646;2023-06-10T08:26:18;4.88;;;4.43;;
13263;SDS011;6700;51.988;7.646;2023-06-10T08:28:45;5.80;;;4.03;;
13263;SDS011;6700;51.988;7.646;2023-06-10T08:31:11;5.90;;;4.35;;
13263;SDS011;6700;51.988;7.646;2023-06-10T08:33:38;4.63;;;4.10;;
13263;SDS011;6700;51.988;7.646;2023-06-10T08:36:05;40.80;;;5.80;;
13263;SDS011;6700;51.988;7.646;2023-06-10T08:38:32;6.05;;;4.43;;
13263;SDS011;6700;51.988;7.646;2023-06-10T08:41:02;5.32;;;3.97;;
13263;SDS011;6700;51.988;7.646;2023-06-10T08:43:33;5.78;;;4.35;;
13263;SDS011;6700;51.988;7.646;2023-06-10T08:46:08;5.03;;;4.30;;
13263;SDS011;6700;51.988;7.646;2023-06-10T08:48:35;7.72;;;5.05;;
13263;SDS011;6700;51.988;7.646;2023-06-10T08:51:08;4.82;;;3.88;;
13263;SDS011;6700;51.988;7.646;2023-06-10T08:53:37;16.08;;;5.32;;
13263;SDS011;6700;51.988;7.646;2023-06-10T08:56:09;6.43;;;4.60;;
13263;SDS011;6700;51.988;7.646;2023-06-10T08:58:37;10.63;;;5.10;;
13263;SDS011;6700;51.988;7.646;2023-06-10T09:01:08;5.88;;;4.30;;
13263;SDS011;6700;51.988;7.646;2023-06-10T09:03:38;5.22;;;4.30;;
13263;SDS011;6700;51.988;7.646;2023-06-10T09:06:05;5.00;;;4.50;;
13263;SDS011;6700;51.988;7.646;2023-06-10T09:08:33;4.78;;;4.38;;
13263;SDS011;6700;51.988;7.646;2023-06-10T09:11:01;5.57;;;4.82;;
13263;SDS011;6700;51.988;7.646;2023-06-10T09:13:28;5.22;;;4.72;;
13263;SDS011;6700;51.988;7.646;2023-06-10T09:15:55;9.30;;;4.50;;
13263;SDS011;6700;51.988;7.646;2023-06-10T09:18:27;6.90;;;4.78;;
13263;SDS011;6700;51.988;7.646;2023-06-10T09:20:54;11.20;;;5.18;;
13263;SDS011;6700;51.988;7.646;2023-06-10T09:23:21;7.43;;;4.60;;
13263;SDS011;6700;51.988;7.646;2023-06-10T09:25:55;5.15;;;4.68;;
13263;SDS011;6700;51.988;7.646;2023-06-10T09:28:23;9.48;;;5.07;;
13263;SDS011;6700;51.988;7.646;2023-06-10T09:31:01;8.13;;;4.72;;
13263;SDS011;6700;51.988;7.646;2023-06-10T09:33:29;7.68;;;4.45;;
13263;SDS011;6700;51.988;7.646;2023-06-10T09:35:56;7.90;;;5.40;;
13263;SDS011;6700;51.988;7.646;2023-06-10T09:38:31;7.72;;;4.15;;
13263;SDS011;6700;51.988;7.646;2023-06-10T09:40:58;8.23;;;5.18;;
13263;SDS011;6700;51.988;7.646;2023-06-10T09:43:43;8.18;;;4.70;;
13263;SDS011;6700;51.988;7.646;2023-06-10T09:46:17;4.95;;;4.45;;
13263;SDS011;6700;51.988;7.646;2023-06-10T09:48:46;6.15;;;4.57;;
13263;SDS011;6700;51.988;7.646;2023-06-10T09:51:13;13.95;;;5.13;;
13263;SDS011;6700;51.988;7.646;2023-06-10T09:53:43;5.75;;;4.80;;
13263;SDS011;6700;51.988;7.646;2023-06-10T09:56:15;5.20;;;4.53;;
13263;SDS011;6700;51.988;7.646;2023-06-10T09:58:42;5.95;;;4.70;;
13263;SDS011;6700;51.988;7.646;2023-06-10T10:01:12;7.35;;;4.40;;
13263;SDS011;6700;51.988;7.646;2023-06-10T10:03:48;7.63;;;4.85;;
13263;SDS011;6700;51.988;7.646;2023-06-10T10:06:16;10.43;;;4.60;;
13263;SDS011;6700;51.988;7.646;2023-06-10T10:08:45;7.68;;;4.30;;
13263;SDS011;6700;51.988;7.646;2023-06-10T10:11:16;4.88;;;4.38;;
13263;SDS011;6700;51.988;7.646;2023-06-10T10:13:48;5.70;;;4.18;;
13263;SDS011;6700;51.988;7.646;2023-06-10T10:16:17;4.72;;;3.83;;
13263;SDS011;6700;51.988;7.646;2023-06-10T10:18:52;6.93;;;4.60;;
13263;SDS011;6700;51.988;7.646;2023-06-10T10:21:26;6.90;;;5.55;;
13263;SDS011;6700;51.988;7.646;2023-06-10T10:24:17;6.88;;;4.78;;
13263;SDS011;6700;51.988;7.646;2023-06-10T10:26:47;10.73;;;5.20;;
13263;SDS011;6700;51.988;7.646;2023-06-10T10:32:18;6.88;;;4.47;;
13263;SDS011;6700;51.988;7.646;2023-06-10T10:34:53;7.70;;;5.07;;
13263;SDS011;6700;51.988;7.646;2023-06-10T10:37:27;8.40;;;4.57;;
13263;SDS011;6700;51.988;7.646;2023-06-10T10:39:54;5.50;;;4.60;;
13263;SDS011;6700;51.988;7.646;2023-06-10T10:42:22;4.97;;;4.15;;
13263;SDS011;6700;51.988;7.646;2023-06-10T10:44:50;8.90;;;5.00;;
13263;SDS011;6700;51.988;7.646;2023-06-10T10:47:17;8.13;;;4.63;;
13263;SDS011;6700;51.988;7.646;2023-06-10T10:49:48;9.77;;;5.03;;
13263;SDS011;6700;51.988;7.646;2023-06-10T10:52:19;6.32;;;4.30;;
13263;SDS011;6700;51.988;7.646;2023-06-10T10:54:46;6.13;;;4.82;;
13263;SDS011;6700;51.988;7.646;2023-06-10T11:05:47;7.78;;;4.35;;
13263;SDS011;6700;51.988;7.646;2023-06-10T11:08:15;5.13;;;4.57;;
13263;SDS011;6700;51.988;7.646;2023-06-10T11:10:55;6.53;;;4.85;;
13263;SDS011;6700;51.988;7.646;2023-06-10T11:13:22;5.95;;;4.65;;
13263;SDS011;6700;51.988;7.646;2023-06-10T11:15:51;5.38;;;4.60;;
13263;SDS011;6700;51.988;7.646;2023-06-10T11:18:27;7.22;;;4.45;;
13263;SDS011;6700;51.988;7.646;2023-06-10T11:21:01;6.95;;;4.68;;
13263;SDS011;6700;51.988;7.646;2023-06-10T11:23:30;7.60;;;4.75;;
13263;SDS011;6700;51.988;7.646;2023-06-10T11:29:03;5.55;;;4.70;;
13263;SDS011;6700;51.988;7.646;2023-06-10T11:31:32;4.88;;;4.38;;
13263;SDS011;6700;51.988;7.646;2023-06-10T11:34:04;7.45;;;4.72;;
13263;SDS011;6700;51.988;7.646;2023-06-10T11:36:33;8.82;;;5.35;;
13263;SDS011;6700;51.988;7.646;2023-06-10T11:39:03;6.30;;;4.50;;
13263;SDS011;6700;51.988;7.646;2023-06-10T11:41:31;17.67;;;6.70;;
13263;SDS011;6700;51.988;7.646;2023-06-10T11:44:12;7.53;;;5.30;;
13263;SDS011;6700;51.988;7.646;2023-06-10T11:46:45;5.45;;;4.63;;
13263;SDS011;6700;51.988;7.646;2023-06-10T11:49:14;5.70;;;4.43;;
13263;SDS011;6700;51.988;7.646;2023-06-10T11:51:41;6.30;;;4.85;;
13263;SDS011;6700;51.988;7.646;2023-06-10T11:54:15;6.22;;;4.47;;
13263;SDS011;6700;51.988;7.646;2023-06-10T11:56:42;5.75;;;5.03;;
13263;SDS011;6700;51.988;7.646;2023-06-10T11:59:09;5.32;;;4.47;;
13263;SDS011;6700;51.988;7.646;2023-06-10T12:01:37;6.80;;;4.75;;
13263;SDS011;6700;51.988;7.646;2023-06-10T12:04:13;4.40;;;4.00;;
13263;SDS011;6700;51.988;7.646;2023-06-10T12:06:45;5.10;;;4.60;;
13263;SDS011;6700;51.988;7.646;2023-06-10T12:09:23;9.10;;;5.15;;
13263;SDS011;6700;51.988;7.646;2023-06-10T12:12:05;5.30;;;4.80;;
13263;SDS011;6700;51.988;7.646;2023-06-10T12:14:52;4.63;;;4.22;;
13263;SDS011;6700;51.988;7.646;2023-06-10T12:20:00;5.60;;;4.82;;
13263;SDS011;6700;51.988;7.646;2023-06-10T12:22:39;7.25;;;4.85;;
13263;SDS011;6700;51.988;7.646;2023-06-10T12:25:08;5.78;;;4.93;;
13263;SDS011;6700;51.988;7.646;2023-06-10T12:27:37;7.50;;;4.60;;
13263;SDS011;6700;51.988;7.646;2023-06-10T12:30:05;8.68;;;4.45;;
13263;SDS011;6700;51.988;7.646;2023-06-10T12:32:42;9.20;;;5.03;;
13263;SDS011;6700;51.988;7.646;2023-06-10T12:35:12;7.22;;;5.05;;
13263;SDS011;6700;51.988;7.646;2023-06-10T12:37:57;8.65;;;5.30;;
13263;SDS011;6700;51.988;7.646;2023-06-10T12:40:26;5.45;;;4.95;;
13263;SDS011;6700;51.988;7.646;2023-06-10T12:42:55;5.85;;;4.97;;
13263;SDS011;6700;51.988;7.646;2023-06-10T12:45:32;5.38;;;4.88;;
13263;SDS011;6700;51.988;7.646;2023-06-10T12:48:04;9.50;;;4.88;;
13263;SDS011;6700;51.988;7.646;2023-06-10T12:50:34;5.55;;;5.05;;
13263;SDS011;6700;51.988;7.646;2023-06-10T12:53:05;5.55;;;5.05;;
13263;SDS011;6700;51.988;7.646;2023-06-10T12:55:33;5.30;;;4.70;;
13263;SDS011;6700;51.988;7.646;2023-06-10T12:58:00;5.25;;;4.75;;
13263;SDS011;6700;51.988;7.646;2023-06-10T13:00:27;5.88;;;4.85;;
13263;SDS011;6700;51.988;7.646;2023-06-10T13:02:56;6.25;;;4.85;;
13263;SDS011;6700;51.988;7.646;2023-06-10T13:05:32;8.68;;;4.82;;
13263;SDS011;6700;51.988;7.646;2023-06-10T13:07:59;5.97;;;4.75;;
13263;SDS011;6700;51.988;7.646;2023-06-10T13:10:25;7.68;;;4.90;;
13263;SDS011;6700;51.988;7.646;2023-06-10T13:12:53;7.63;;;5.00;;
13263;SDS011;6700;51.988;7.646;2023-06-10T13:15:21;10.50;;;5.00;;
13263;SDS011;6700;51.988;7.646;2023-06-10T13:17:47;7.07;;;5.07;;
13263;SDS011;6700;51.988;7.646;2023-06-10T13:20:15;6.38;;;5.20;;
13263;SDS011;6700;51.988;7.646;2023-06-10T13:22:43;5.22;;;4.72;;
13263;SDS011;6700;51.988;7.646;2023-06-10T13:25:09;7.03;;;4.97;;
13263;SDS011;6700;51.988;7.646;2023-06-10T13:27:37;8.10;;;5.15;;
13263;SDS011;6700;51.988;7.646;2023-06-10T13:30:05;6.43;;;5.75;;
13263;SDS011;6700;51.988;7.646;2023-06-10T13:32:33;5.38;;;4.88;;
13263;SDS011;6700;51.988;7.646;2023-06-10T13:35:00;9.27;;;5.13;;
13263;SDS011;6700;51.988;7.646;2023-06-10T13:37:30;10.32;;;4.80;;
13263;SDS011;6700;51.988;7.646;2023-06-10T13:39:57;6.97;;;5.50;;
13263;SDS011;6700;51.988;7.646;2023-06-10T13:42:24;6.07;;;4.90;;
13263;SDS011;6700;51.988;7.646;2023-06-10T13:44:52;9.50;;;5.50;;
13263;SDS011;6700;51.988;7.646;2023-06-10T13:47:20;5.28;;;4.78;;
13263;SDS011;6700;51.988;7.646;2023-06-10T13:49:47;7.93;;;5.53;;
13263;SDS011;6700;51.988;7.646;2023-06-10T13:52:14;5.88;;;5.13;;
13263;SDS011;6700;51.988;7.646;2023-06-10T13:54:40;5.20;;;4.70;;
13263;SDS011;6700;51.988;7.646;2023-06-10T13:57:07;6.70;;;5.03;;
13263;SDS011;6700;51.988;7.646;2023-06-10T13:59:36;6.60;;;5.13;;
13263;SDS011;6700;51.988;7.646;2023-06-10T14:02:03;5.75;;;5.28;;
13263;SDS011;6700;51.988;7.646;2023-06-10T14:04:30;5.97;;;5.45;;
13263;SDS011;6700;51.988;7.646;2023-06-10T14:06:57;5.95;;;5.45;;
13263;SDS011;6700;51.988;7.646;2023-06-10T14:09:24;7.88;;;5.93;;
13263;SDS011;6700;51.988;7.646;2023-06-10T14:11:50;8.50;;;5.18;;
13263;SDS011;6700;51.988;7.646;2023-06-10T14:14:18;9.43;;;5.45;;
13263;SDS011;6700;51.988;7.646;2023-06-10T14:16:45;6.22;;;5.10;;
13263;SDS011;6700;51.988;7.646;2023-06-10T14:19:12;6.07;;;5.47;;
13263;SDS011;6700;51.988;7.646;2023-06-10T14:21:39;7.03;;;5.57;;
13263;SDS011;6700;51.988;7.646;2023-06-10T14:24:05;5.63;;;5.10;;
13263;SDS011;6700;51.988;7.646;2023-06-10T14:26:32;5.88;;;5.05;;
13263;SDS011;6700;51.988;7.646;2023-06-10T14:28:59;6.22;;;5.55;;
13263;SDS011;6700;51.988;7.646;2023-06-10T14:31:26;5.60;;;5.10;;
13263;SDS011;6700;51.988;7.646;2023-06-10T14:33:53;5.53;;;4.90;;
13263;SDS011;6700;51.988;7.646;2023-06-10T14:36:19;5.72;;;5.20;;
13263;SDS011;6700;51.988;7.646;2023-06-10T14:38:46;5.72;;;5.07;;
13263;SDS011;6700;51.988;7.646;2023-06-10T14:41:13;5.63;;;4.75;;
13263;SDS011;6700;51.988;7.646;2023-06-10T14:43:40;6.70;;;5.30;;
13263;SDS011;6700;51.988;7.646;2023-06-10T14:46:07;8.30;;;5.28;;
13263;SDS011;6700;51.988;7.646;2023-06-10T14:48:33;10.35;;;7.35;;
13263;SDS011;6700;51.988;7.646;2023-06-10T14:51:00;13.60;;;10.70;;
13263;SDS011;6700;51.988;7.646;2023-06-10T14:53:28;8.45;;;6.53;;
13263;SDS011;6700;51.988;7.646;2023-06-10T14:55:55;6.43;;;5.35;;
13263;SDS011;6700;51.988;7.646;2023-06-10T14:58:21;6.65;;;5.75;;
13263;SDS011;6700;51.988;7.646;2023-06-10T15:00:48;6.22;;;4.93;;
13263;SDS011;6700;51.988;7.646;2023-06-10T15:03:15;5.70;;;5.10;;
13263;SDS011;6700;51.988;7.646;2023-06-10T15:05:42;6.95;;;5.28;;
13263;SDS011;6700;51.988;7.646;2023-06-10T15:08:08;6.20;;;5.18;;
13263;SDS011;6700;51.988;7.646;2023-06-10T15:10:35;6.53;;;5.25;;
13263;SDS011;6700;51.988;7.646;2023-06-10T15:13:02;5.80;;;5.30;;
13263;SDS011;6700;51.988;7.646;2023-06-10T15:15:29;6.90;;;5.38;;
13263;SDS011;6700;51.988;7.646;2023-06-10T15:17:55;6.15;;;4.93;;
13263;SDS011;6700;51.988;7.646;2023-06-10T15:20:22;12.23;;;5.68;;
13263;SDS011;6700;51.988;7.646;2023-06-10T15:22:49;13.27;;;6.03;;
13263;SDS011;6700;51.988;7.646;2023-06-10T15:25:16;7.75;;;5.65;;
13263;SDS011;6700;51.988;7.646;2023-06-10T15:27:56;11.95;;;7.30;;